createdAt,value
2017-11-15T00:02:16.769Z,9.20
2017-11-15T00:04:44.213Z,8.60
2017-11-15T00:07:12.478Z,12.73
2017-11-15T00:09:39.899Z,9.33
2017-11-15T00:12:07.380Z,9.30
2017-11-15T00:14:34.789Z,7.43
2017-11-15T00:17:02.285Z,9.53
2017-11-15T00:19:29.722Z,10.83
2017-11-15T00:21:57.177Z,7.60
2017-11-15T00:24:24.650Z,8.10
2017-11-15T00:26:52.096Z,8.30
2017-11-15T00:29:20.347Z,9.57
2017-11-15T00:31:47.825Z,9.90
2017-11-15T00:34:16.058Z,9.00
2017-11-15T00:36:43.553Z,11.87
2017-11-15T00:39:11.025Z,9.10
2017-11-15T00:41:38.460Z,9.23
2017-11-15T00:44:05.924Z,11.93
2017-11-15T00:46:33.393Z,8.83
2017-11-15T00:49:00.897Z,13.37
2017-11-15T00:51:28.392Z,8.87
2017-11-15T00:53:55.854Z,8.07
2017-11-15T00:56:23.306Z,9.43
2017-11-15T00:58:51.194Z,8.33
2017-11-15T01:01:18.651Z,10.10
2017-11-15T01:03:46.101Z,8.80
2017-11-15T01:06:13.582Z,10.37
2017-11-15T01:08:41.039Z,8.23
2017-11-15T01:11:08.520Z,11.23
2017-11-15T01:13:35.981Z,10.60
2017-11-15T01:16:03.458Z,7.43
2017-11-15T01:18:30.911Z,8.37
2017-11-15T01:20:58.388Z,10.87
2017-11-15T01:23:25.855Z,8.43
2017-11-15T01:25:53.348Z,8.93
2017-11-15T01:28:21.586Z,7.20
2017-11-15T01:30:49.038Z,10.47
2017-11-15T01:33:16.547Z,8.43
2017-11-15T01:35:43.992Z,9.03
2017-11-15T01:38:12.230Z,10.27
2017-11-15T01:40:39.750Z,10.60
2017-11-15T01:43:07.993Z,10.70
2017-11-15T01:45:35.465Z,7.70
2017-11-15T01:48:02.966Z,8.60
2017-11-15T01:50:30.417Z,9.77
2017-11-15T01:52:57.898Z,11.43
2017-11-15T01:55:25.391Z,9.87
2017-11-15T01:57:52.837Z,10.43
2017-11-15T02:00:20.338Z,9.40
2017-11-15T02:02:47.797Z,7.37
2017-11-15T02:05:15.268Z,12.63
2017-11-15T02:07:42.729Z,10.37
2017-11-15T02:10:10.215Z,8.77
2017-11-15T02:12:38.446Z,10.00
2017-11-15T02:15:05.957Z,19.43
2017-11-15T02:17:34.204Z,10.50
2017-11-15T02:20:01.669Z,9.10
2017-11-15T02:22:29.147Z,7.83
2017-11-15T02:24:56.624Z,12.33
2017-11-15T02:27:24.891Z,10.40
2017-11-15T02:29:52.339Z,9.30
2017-11-15T02:32:21.323Z,10.80
2017-11-15T02:34:48.804Z,9.03
2017-11-15T02:37:16.260Z,9.30
2017-11-15T02:39:43.750Z,12.53
2017-11-15T02:42:12.030Z,11.30
2017-11-15T02:44:40.234Z,10.03
2017-11-15T02:47:07.652Z,11.00
2017-11-15T02:49:35.156Z,10.80
2017-11-15T02:52:02.601Z,10.80
2017-11-15T02:54:30.097Z,10.90
2017-11-15T02:56:58.381Z,10.70
2017-11-15T02:59:26.613Z,12.80
2017-11-15T03:01:54.092Z,11.47
2017-11-15T03:04:21.553Z,11.30
2017-11-15T03:06:49.057Z,10.33
2017-11-15T03:09:17.282Z,12.67
2017-11-15T03:11:44.902Z,10.57
2017-11-15T03:14:13.155Z,18.40
2017-11-15T03:16:40.618Z,12.97
2017-11-15T03:19:08.114Z,12.83
2017-11-15T03:21:35.547Z,16.13
2017-11-15T03:24:03.065Z,8.97
2017-11-15T03:26:30.556Z,14.13
2017-11-15T03:28:57.967Z,9.73
2017-11-15T03:31:26.228Z,10.57
2017-11-15T03:33:53.687Z,11.17
2017-11-15T03:36:21.141Z,12.50
2017-11-15T03:38:48.735Z,11.57
2017-11-15T03:41:16.217Z,10.77
2017-11-15T03:43:43.722Z,11.23
2017-11-15T03:46:11.153Z,10.53
2017-11-15T03:48:38.619Z,13.80
2017-11-15T03:51:06.097Z,11.03
2017-11-15T03:53:33.535Z,11.87
2017-11-15T03:56:01.011Z,15.90
2017-11-15T03:58:28.498Z,13.60
2017-11-15T04:00:55.953Z,13.50
2017-11-15T04:03:23.434Z,14.97
2017-11-15T04:05:51.652Z,12.47
2017-11-15T04:08:19.136Z,11.30
2017-11-15T04:10:46.614Z,14.60
2017-11-15T04:13:14.121Z,12.60
2017-11-15T04:15:42.333Z,11.00
2017-11-15T04:18:09.815Z,14.37
2017-11-15T04:20:37.278Z,13.23
2017-11-15T04:23:04.717Z,13.33
2017-11-15T04:25:32.205Z,13.40
2017-11-15T04:27:59.654Z,12.70
2017-11-15T04:30:27.238Z,15.07
2017-11-15T04:32:54.689Z,14.67
2017-11-15T04:35:22.141Z,13.87
2017-11-15T04:37:49.602Z,14.20
2017-11-15T04:40:17.078Z,12.40
2017-11-15T04:42:44.696Z,19.57
2017-11-15T04:45:12.223Z,18.50
2017-11-15T04:47:39.678Z,15.00
2017-11-15T04:50:07.129Z,16.40
2017-11-15T04:52:34.695Z,13.63
2017-11-15T04:55:02.185Z,11.37
2017-11-15T04:57:29.632Z,17.17
2017-11-15T04:59:57.099Z,16.40
2017-11-15T05:02:24.563Z,17.20
2017-11-15T05:04:52.215Z,15.27
2017-11-15T05:07:19.656Z,16.97
2017-11-15T05:09:47.135Z,18.07
2017-11-15T05:12:14.663Z,18.20
2017-11-15T05:14:42.111Z,18.90
2017-11-15T05:17:10.344Z,15.47
2017-11-15T05:19:37.826Z,18.60
2017-11-15T05:22:05.287Z,19.50
2017-11-15T05:24:32.737Z,19.63
2017-11-15T05:27:00.214Z,17.70
2017-11-15T05:29:27.672Z,15.87
2017-11-15T05:31:55.176Z,16.50
2017-11-15T05:34:22.666Z,18.87
2017-11-15T05:36:50.161Z,14.40
2017-11-15T05:39:17.648Z,14.60
2017-11-15T05:41:45.910Z,15.83
2017-11-15T05:44:13.401Z,19.87
2017-11-15T05:46:41.594Z,18.90
2017-11-15T05:49:09.097Z,15.20
2017-11-15T05:51:36.548Z,16.70
2017-11-15T05:54:04.052Z,18.47
2017-11-15T05:56:32.300Z,14.17
2017-11-15T05:58:59.762Z,18.47
2017-11-15T06:01:27.212Z,16.57
2017-11-15T06:03:54.692Z,18.80
2017-11-15T06:06:22.149Z,19.40
2017-11-15T06:08:49.658Z,16.87
2017-11-15T06:11:17.181Z,16.60
2017-11-15T06:13:44.711Z,17.20
2017-11-15T06:16:12.162Z,24.20
2017-11-15T06:18:39.583Z,16.00
2017-11-15T06:21:07.250Z,14.67
2017-11-15T06:23:34.752Z,18.87
2017-11-15T06:26:02.253Z,17.63
2017-11-15T06:28:29.738Z,13.27
2017-11-15T06:30:57.957Z,17.17
2017-11-15T06:33:25.490Z,14.17
2017-11-15T06:35:52.898Z,16.53
2017-11-15T06:38:21.778Z,18.77
2017-11-15T06:40:49.311Z,16.37
2017-11-15T06:43:16.809Z,12.23
2017-11-15T06:45:44.253Z,11.57
2017-11-15T06:48:12.510Z,15.13
2017-11-15T06:50:40.014Z,21.20
2017-11-15T06:53:07.505Z,18.30
2017-11-15T06:55:35.000Z,15.60
2017-11-15T06:58:02.479Z,18.33
2017-11-15T07:00:30.735Z,17.97
2017-11-15T07:02:58.244Z,17.63
2017-11-15T07:05:25.686Z,19.67
2017-11-15T07:07:53.985Z,17.60
2017-11-15T07:10:21.449Z,19.30
2017-11-15T07:12:48.943Z,20.00
2017-11-15T07:15:16.437Z,18.57
2017-11-15T07:17:44.016Z,19.47
2017-11-15T07:20:11.468Z,15.37
2017-11-15T07:22:38.958Z,20.73
2017-11-15T07:25:06.435Z,16.13
2017-11-15T07:27:33.926Z,19.00
2017-11-15T07:30:01.412Z,18.40
2017-11-15T07:32:28.915Z,20.67
2017-11-15T07:34:56.405Z,17.03
2017-11-15T07:37:23.922Z,19.53
2017-11-15T07:39:52.192Z,13.67
2017-11-15T07:42:19.634Z,18.77
2017-11-15T07:44:47.095Z,23.90
2017-11-15T07:47:14.633Z,13.30
2017-11-15T07:49:42.839Z,13.23
2017-11-15T07:52:10.253Z,15.77
2017-11-15T07:54:37.780Z,12.60
2017-11-15T07:57:05.257Z,14.97
2017-11-15T07:59:33.478Z,19.37
2017-11-15T08:02:00.971Z,15.30
2017-11-15T08:04:28.441Z,16.57
2017-11-15T08:06:55.893Z,17.87
2017-11-15T08:09:23.363Z,19.30
2017-11-15T08:11:51.065Z,11.87
2017-11-15T08:14:18.504Z,18.00
2017-11-15T08:16:45.957Z,15.97
2017-11-15T08:19:13.479Z,23.20
2017-11-15T08:21:40.906Z,13.03
2017-11-15T08:24:08.397Z,11.00
2017-11-15T08:26:35.934Z,15.30
2017-11-15T08:29:04.153Z,15.10
2017-11-15T08:31:31.597Z,15.43
2017-11-15T08:33:59.109Z,16.03
2017-11-15T08:36:26.826Z,13.33
2017-11-15T08:38:54.264Z,11.33
2017-11-15T08:41:22.483Z,14.80
2017-11-15T08:43:49.964Z,14.20
2017-11-15T08:46:17.425Z,15.37
2017-11-15T08:48:44.941Z,20.10
2017-11-15T08:51:12.424Z,12.33
2017-11-15T08:53:39.946Z,17.10
2017-11-15T08:56:08.180Z,10.80
2017-11-15T08:58:35.613Z,19.40
2017-11-15T09:01:03.065Z,21.57
2017-11-15T09:03:31.277Z,19.30
2017-11-15T09:05:58.791Z,12.27
2017-11-15T09:08:26.251Z,12.93
2017-11-15T09:10:53.760Z,11.60
2017-11-15T09:13:21.261Z,13.87
2017-11-15T09:15:48.783Z,13.50
2017-11-15T09:18:16.224Z,11.87
2017-11-15T09:20:44.506Z,8.80
2017-11-15T09:23:11.941Z,15.90
2017-11-15T09:25:39.424Z,11.20
2017-11-15T09:28:07.670Z,22.93
2017-11-15T09:30:35.387Z,11.57
2017-11-15T09:33:02.844Z,13.67
2017-11-15T09:35:30.420Z,12.70
2017-11-15T09:37:57.832Z,9.37
2017-11-15T09:40:25.303Z,10.50
2017-11-15T09:42:52.885Z,9.53
2017-11-15T09:45:21.129Z,13.67
2017-11-15T09:47:48.605Z,12.20
2017-11-15T09:50:16.042Z,8.57
2017-11-15T09:52:43.542Z,14.57
2017-11-15T09:55:11.019Z,10.57
2017-11-15T09:57:39.263Z,8.77
2017-11-15T10:00:06.701Z,9.37
2017-11-15T10:02:34.207Z,13.17
2017-11-15T10:05:02.431Z,14.80
2017-11-15T10:07:29.887Z,9.37
2017-11-15T10:09:57.392Z,10.53
2017-11-15T10:12:24.838Z,11.07
2017-11-15T10:14:52.338Z,12.70
2017-11-15T10:17:19.792Z,9.80
2017-11-15T10:19:47.280Z,10.80
2017-11-15T10:22:15.277Z,12.30
2017-11-15T10:24:42.766Z,9.10
2017-11-15T10:27:10.228Z,16.43
2017-11-15T10:29:37.680Z,9.07
2017-11-15T10:32:05.170Z,13.13
2017-11-15T10:34:32.634Z,12.90
2017-11-15T10:37:00.104Z,8.80
2017-11-15T10:39:29.097Z,9.67
2017-11-15T10:41:56.639Z,14.47
2017-11-15T10:44:24.851Z,17.10
2017-11-15T10:46:52.329Z,13.67
2017-11-15T10:49:20.775Z,10.93
2017-11-15T10:51:48.253Z,7.87
2017-11-15T10:54:16.538Z,12.40
2017-11-15T10:56:44.000Z,14.67
2017-11-15T10:59:11.401Z,11.47
2017-11-15T11:01:38.905Z,16.27
2017-11-15T11:04:06.373Z,15.27
2017-11-15T11:06:33.833Z,12.47
2017-11-15T11:09:01.303Z,14.70
2017-11-15T11:11:28.729Z,12.30
2017-11-15T11:13:56.218Z,11.93
2017-11-15T11:16:23.638Z,12.97
2017-11-15T11:18:51.097Z,10.90
2017-11-15T11:21:18.608Z,16.23
2017-11-15T11:23:46.055Z,11.00
2017-11-15T11:26:13.536Z,10.80
2017-11-15T11:28:40.998Z,13.80
2017-11-15T11:31:08.453Z,8.47
2017-11-15T11:33:35.942Z,8.30
2017-11-15T11:36:04.192Z,12.07
2017-11-15T11:38:31.684Z,12.40
2017-11-15T11:40:59.178Z,8.23
2017-11-15T11:43:26.651Z,9.67
2017-11-15T11:45:54.143Z,9.70
2017-11-15T11:48:21.598Z,9.43
2017-11-15T11:50:49.211Z,9.70
2017-11-15T11:53:17.546Z,10.33
2017-11-15T11:55:45.031Z,11.80
2017-11-15T11:58:12.478Z,8.50
2017-11-15T12:00:39.963Z,8.93
2017-11-15T12:03:07.444Z,14.77
2017-11-15T12:05:34.904Z,8.70
2017-11-15T12:08:03.994Z,14.57
2017-11-15T12:10:31.421Z,10.53
2017-11-15T12:12:58.911Z,11.63
2017-11-15T12:15:27.152Z,9.10
2017-11-15T12:17:54.613Z,11.00
2017-11-15T12:20:22.102Z,10.23
2017-11-15T12:22:49.561Z,9.20
2017-11-15T12:25:17.044Z,7.27
2017-11-15T12:27:44.496Z,9.40
2017-11-15T12:30:12.011Z,9.90
2017-11-15T12:32:39.453Z,13.83
2017-11-15T12:35:06.980Z,8.73
2017-11-15T12:37:34.469Z,7.27
2017-11-15T12:40:02.789Z,12.30
2017-11-15T12:42:30.737Z,13.67
2017-11-15T12:44:58.897Z,7.70
2017-11-15T12:47:26.283Z,7.87
2017-11-15T12:49:53.774Z,7.23
2017-11-15T12:52:21.257Z,10.93
2017-11-15T12:54:48.721Z,8.93
2017-11-15T12:57:16.520Z,11.50
2017-11-15T12:59:44.757Z,7.60
2017-11-15T13:02:12.259Z,7.00
2017-11-15T13:04:40.570Z,11.00
2017-11-15T13:07:08.018Z,7.30
2017-11-15T13:09:35.494Z,21.87
2017-11-15T13:12:02.987Z,5.97
2017-11-15T13:14:30.429Z,11.10
2017-11-15T13:16:57.904Z,9.97
2017-11-15T13:19:25.373Z,8.77
2017-11-15T13:21:53.061Z,13.27
2017-11-15T13:24:20.552Z,6.07
2017-11-15T13:26:48.012Z,9.83
2017-11-15T13:29:16.241Z,7.43
2017-11-15T13:31:43.729Z,6.53
2017-11-15T13:34:11.272Z,6.80
2017-11-15T13:36:38.740Z,6.97
2017-11-15T13:39:06.245Z,6.10
2017-11-15T13:41:34.460Z,6.90
2017-11-15T13:44:02.687Z,7.20
2017-11-15T13:46:30.167Z,5.73
2017-11-15T13:48:57.652Z,6.00
2017-11-15T13:51:25.149Z,5.30
2017-11-15T13:53:52.684Z,11.90
2017-11-15T13:56:20.182Z,10.27
2017-11-15T13:58:47.659Z,6.57
2017-11-15T14:01:15.113Z,9.80
2017-11-15T14:03:42.621Z,11.80
2017-11-15T14:06:10.132Z,10.10
2017-11-15T14:08:37.612Z,7.20
2017-11-15T14:11:05.122Z,5.93
2017-11-15T14:13:32.615Z,9.90
2017-11-15T14:16:00.384Z,7.80
2017-11-15T14:18:28.564Z,6.47
2017-11-15T14:20:56.042Z,7.90
2017-11-15T14:23:23.520Z,6.80
2017-11-15T14:25:51.013Z,6.03
2017-11-15T14:28:18.519Z,7.60
2017-11-15T14:30:45.985Z,5.77
2017-11-15T14:33:13.662Z,9.63
2017-11-15T14:35:41.126Z,6.67
2017-11-15T14:38:08.616Z,5.30
2017-11-15T14:40:36.874Z,6.00
2017-11-15T14:43:04.353Z,10.47
2017-11-15T14:45:32.578Z,6.47
2017-11-15T14:48:00.105Z,8.20
2017-11-15T14:50:27.591Z,10.90
2017-11-15T14:52:55.041Z,5.70
2017-11-15T14:55:22.516Z,7.03
2017-11-15T14:57:50.032Z,11.93
2017-11-15T15:00:17.492Z,6.83
2017-11-15T15:02:44.994Z,5.40
2017-11-15T15:05:12.461Z,5.63
2017-11-15T15:07:40.431Z,6.07
2017-11-15T15:10:07.888Z,6.07
2017-11-15T15:12:36.106Z,6.00
2017-11-15T15:15:03.607Z,5.20
2017-11-15T15:17:31.210Z,4.93
2017-11-15T15:19:58.709Z,7.13
2017-11-15T15:22:26.210Z,6.03
2017-11-15T15:24:53.721Z,6.30
2017-11-15T15:27:21.251Z,9.27
2017-11-15T15:29:48.798Z,9.80
2017-11-15T15:32:17.076Z,9.30
2017-11-15T15:34:44.555Z,10.27
2017-11-15T15:37:11.992Z,12.53
2017-11-15T15:39:40.238Z,5.17
2017-11-15T15:42:07.765Z,6.20
2017-11-15T15:44:35.282Z,7.67
2017-11-15T15:47:02.747Z,10.60
2017-11-15T15:49:30.468Z,6.50
2017-11-15T15:51:57.896Z,9.27
2017-11-15T15:54:26.203Z,6.90
2017-11-15T15:56:53.623Z,8.90
2017-11-15T15:59:21.073Z,5.97
2017-11-15T16:01:48.820Z,11.40
2017-11-15T16:04:16.286Z,10.63
2017-11-15T16:06:43.800Z,13.53
2017-11-15T16:09:12.037Z,8.60
2017-11-15T16:11:39.488Z,7.10
2017-11-15T16:14:06.998Z,19.90
2017-11-15T16:16:34.426Z,7.87
2017-11-15T16:19:01.922Z,8.37
2017-11-15T16:21:29.361Z,9.50
2017-11-15T16:23:56.847Z,14.93
2017-11-15T16:26:25.148Z,24.90
2017-11-15T16:28:53.377Z,25.53
2017-11-15T16:31:20.884Z,20.80
2017-11-15T16:33:49.165Z,13.47
2017-11-15T16:36:16.609Z,10.40
2017-11-15T16:38:44.108Z,9.40
2017-11-15T16:41:11.592Z,6.70
2017-11-15T16:43:39.062Z,7.90
2017-11-15T16:46:06.581Z,5.93
2017-11-15T16:48:34.981Z,7.73
2017-11-15T16:51:02.464Z,7.60
2017-11-15T16:53:29.975Z,7.17
2017-11-15T16:55:57.445Z,15.33
2017-11-15T16:58:25.672Z,6.80
2017-11-15T17:00:53.192Z,6.90
2017-11-15T17:03:21.579Z,11.50
2017-11-15T17:05:49.817Z,19.53
2017-11-15T17:08:19.032Z,6.87
2017-11-15T17:10:46.479Z,7.77
2017-11-15T17:13:13.969Z,7.70
2017-11-15T17:15:42.184Z,12.10
2017-11-15T17:18:09.715Z,26.17
2017-11-15T17:20:38.005Z,19.27
2017-11-15T17:23:06.291Z,15.00
2017-11-15T17:25:34.543Z,17.07
2017-11-15T17:28:02.057Z,9.87
2017-11-15T17:30:29.573Z,15.70
2017-11-15T17:32:57.040Z,22.50
2017-11-15T17:35:25.268Z,16.13
2017-11-15T17:37:52.915Z,14.00
2017-11-15T17:40:20.335Z,9.77
2017-11-15T17:42:47.803Z,12.93
2017-11-15T17:45:15.388Z,11.03
2017-11-15T17:47:43.613Z,8.83
2017-11-15T17:50:11.061Z,11.03
2017-11-15T17:52:38.557Z,16.13
2017-11-15T17:55:06.035Z,16.37
2017-11-15T17:57:33.497Z,9.97
2017-11-15T18:00:01.014Z,7.00
2017-11-15T18:02:28.476Z,13.00
2017-11-15T18:04:55.922Z,9.37
2017-11-15T18:07:23.409Z,9.27
2017-11-15T18:09:50.913Z,10.23
2017-11-15T18:12:18.419Z,16.43
2017-11-15T18:14:45.888Z,22.17
2017-11-15T18:17:13.395Z,14.27
2017-11-15T18:19:40.831Z,16.60
2017-11-15T18:22:08.323Z,13.57
2017-11-15T18:24:35.778Z,16.73
2017-11-15T18:27:03.319Z,16.97
2017-11-15T18:29:30.788Z,14.23
2017-11-15T18:31:58.244Z,15.73
2017-11-15T18:34:25.752Z,21.50
2017-11-15T18:36:54.007Z,19.67
2017-11-15T18:39:21.524Z,16.23
2017-11-15T18:41:49.008Z,21.97
2017-11-15T18:44:16.513Z,19.40
2017-11-15T18:46:43.975Z,14.03
2017-11-15T18:49:11.850Z,16.10
2017-11-15T18:51:39.435Z,13.27
2017-11-15T18:54:06.860Z,12.33
2017-11-15T18:56:34.341Z,10.80
2017-11-15T18:59:01.860Z,9.60
2017-11-15T19:01:29.278Z,9.77
2017-11-15T19:03:56.771Z,12.10
2017-11-15T19:06:25.002Z,14.67
2017-11-15T19:08:52.497Z,12.90
2017-11-15T19:11:19.985Z,10.80
2017-11-15T19:13:47.493Z,12.13
2017-11-15T19:16:14.984Z,18.00
2017-11-15T19:18:42.496Z,13.73
2017-11-15T19:21:09.974Z,11.33
2017-11-15T19:23:38.219Z,14.37
2017-11-15T19:26:06.449Z,13.20
2017-11-15T19:28:34.164Z,13.27
2017-11-15T19:31:02.406Z,12.40
2017-11-15T19:33:29.866Z,18.60
2017-11-15T19:35:57.361Z,13.83
2017-11-15T19:38:25.639Z,14.10
2017-11-15T19:40:53.871Z,14.53
2017-11-15T19:43:21.369Z,14.17
2017-11-15T19:45:48.847Z,11.40
2017-11-15T19:48:16.340Z,12.17
2017-11-15T19:50:43.780Z,14.60
2017-11-15T19:53:11.462Z,12.90
2017-11-15T19:55:38.930Z,11.93
2017-11-15T19:58:06.404Z,10.33
2017-11-15T20:00:33.859Z,13.43
2017-11-15T20:03:01.501Z,12.13
2017-11-15T20:05:29.772Z,14.00
2017-11-15T20:07:58.024Z,12.30
2017-11-15T20:10:25.916Z,14.17
2017-11-15T20:12:53.503Z,14.90
2017-11-15T20:15:20.963Z,12.87
2017-11-15T20:17:49.176Z,12.90
2017-11-15T20:20:16.708Z,14.50
2017-11-15T20:22:44.219Z,13.73
2017-11-15T20:25:11.707Z,11.77
2017-11-15T20:27:40.012Z,12.10
2017-11-15T20:30:08.237Z,11.23
2017-11-15T20:32:35.711Z,21.10
2017-11-15T20:35:03.262Z,11.23
2017-11-15T20:37:30.711Z,10.77
2017-11-15T20:39:58.201Z,17.90
2017-11-15T20:42:25.760Z,14.57
2017-11-15T20:44:53.219Z,15.23
2017-11-15T20:47:20.701Z,16.97
2017-11-15T20:49:48.189Z,21.47
2017-11-15T20:52:15.787Z,15.73
2017-11-15T20:54:43.311Z,12.87
2017-11-15T20:57:11.578Z,14.03
2017-11-15T20:59:39.055Z,26.87
2017-11-15T21:02:06.561Z,16.57
2017-11-15T21:04:42.532Z,14.67
2017-11-15T21:07:09.995Z,11.30
2017-11-15T21:09:37.468Z,14.40
2017-11-15T21:12:04.965Z,14.20
2017-11-15T21:14:32.481Z,15.20
2017-11-15T21:16:59.940Z,20.30
2017-11-15T21:19:27.446Z,15.23
2017-11-15T21:21:54.924Z,11.17
2017-11-15T21:24:22.402Z,16.53
2017-11-15T21:26:50.708Z,13.43
2017-11-15T21:29:18.222Z,14.77
2017-11-15T21:31:45.694Z,21.10
2017-11-15T21:34:13.215Z,19.53
2017-11-15T21:36:40.704Z,18.40
2017-11-15T21:39:08.180Z,17.67
2017-11-15T21:41:35.834Z,18.37
2017-11-15T21:44:03.341Z,15.20
2017-11-15T21:46:31.735Z,22.17
2017-11-15T21:48:59.237Z,17.87
2017-11-15T21:51:26.684Z,17.67
2017-11-15T21:53:54.184Z,21.43
2017-11-15T21:56:23.225Z,17.63
2017-11-15T21:58:51.599Z,16.77
2017-11-15T22:01:19.103Z,21.10
2017-11-15T22:03:46.594Z,17.67
2017-11-15T22:06:14.104Z,10.60
2017-11-15T22:08:41.649Z,11.20
2017-11-15T22:11:09.182Z,18.07
2017-11-15T22:13:36.673Z,15.37
2017-11-15T22:16:06.714Z,20.93
2017-11-15T22:18:34.183Z,23.03
2017-11-15T22:21:01.922Z,15.93
2017-11-15T22:23:29.416Z,14.60
2017-11-15T22:25:56.931Z,13.43
2017-11-15T22:28:24.349Z,16.60
2017-11-15T22:30:51.817Z,15.60
2017-11-15T22:33:19.329Z,22.70
2017-11-15T22:35:47.588Z,27.17
2017-11-15T22:38:15.062Z,25.57
2017-11-15T22:40:42.527Z,26.80
2017-11-15T22:43:10.020Z,23.37
2017-11-15T22:45:37.523Z,16.97
2017-11-15T22:48:04.959Z,17.87
2017-11-15T22:50:32.467Z,25.00
2017-11-15T22:52:59.939Z,19.00
2017-11-15T22:55:27.531Z,20.70
2017-11-15T22:57:55.820Z,17.93
2017-11-15T23:00:23.271Z,21.03
2017-11-15T23:02:50.849Z,15.13
2017-11-15T23:05:18.365Z,20.40
2017-11-15T23:07:45.818Z,20.77
2017-11-15T23:10:13.354Z,18.00
2017-11-15T23:12:41.554Z,17.80
2017-11-15T23:15:09.059Z,17.27
2017-11-15T23:17:37.368Z,19.87
2017-11-15T23:20:04.904Z,24.10
2017-11-15T23:22:33.070Z,21.27
2017-11-15T23:25:00.560Z,16.07
2017-11-15T23:27:28.039Z,19.30
2017-11-15T23:29:56.282Z,31.13
2017-11-15T23:32:23.800Z,13.00
2017-11-15T23:34:51.296Z,16.97
2017-11-15T23:37:18.842Z,17.23
2017-11-15T23:39:46.367Z,16.97
2017-11-15T23:42:13.825Z,16.20
2017-11-15T23:44:41.289Z,17.03
2017-11-15T23:47:08.797Z,19.87
2017-11-15T23:49:36.312Z,22.93
2017-11-15T23:52:03.824Z,20.77
2017-11-15T23:54:31.293Z,20.80
2017-11-15T23:56:58.751Z,14.40
2017-11-15T23:59:26.271Z,20.90
